createdAt,value
2023-05-17T00:00:15.390Z,5
2023-05-17T00:01:22.493Z,6
2023-05-17T00:02:29.582Z,6
2023-05-17T00:03:36.533Z,5
2023-05-17T00:04:43.595Z,6
2023-05-17T00:05:50.604Z,5
2023-05-17T00:06:57.704Z,6
2023-05-17T00:08:05.906Z,4
2023-05-17T00:09:13.059Z,4
2023-05-17T00:10:20.781Z,5
2023-05-17T00:11:27.788Z,5
2023-05-17T00:12:34.837Z,6
2023-05-17T00:13:41.972Z,6
2023-05-17T00:14:49.970Z,6
2023-05-17T00:15:56.910Z,5
2023-05-17T00:17:03.910Z,7
2023-05-17T00:18:10.918Z,5
2023-05-17T00:19:18.927Z,5
2023-05-17T00:20:26.178Z,5
2023-05-17T00:21:33.150Z,5
2023-05-17T00:22:40.346Z,6
2023-05-17T00:23:47.334Z,5
2023-05-17T00:24:54.394Z,8
2023-05-17T00:26:12.830Z,5
2023-05-17T00:27:19.912Z,5
2023-05-17T00:28:26.846Z,4
2023-05-17T00:29:33.852Z,5
2023-05-17T00:30:40.818Z,5
2023-05-17T00:31:50.537Z,5
2023-05-17T00:32:57.552Z,5
2023-05-17T00:34:04.499Z,4
2023-05-17T00:35:12.169Z,6
2023-05-17T00:36:18.406Z,5
2023-05-17T00:37:25.534Z,6
2023-05-17T00:38:35.132Z,5
2023-05-17T00:39:42.193Z,4
2023-05-17T00:40:49.715Z,5
2023-05-17T00:41:56.632Z,6
2023-05-17T00:43:03.707Z,5
2023-05-17T00:44:11.179Z,7
2023-05-17T00:45:18.389Z,6
2023-05-17T00:46:25.346Z,5
2023-05-17T00:47:32.300Z,5
2023-05-17T00:48:39.328Z,5
2023-05-17T00:49:46.457Z,5
2023-05-17T00:50:53.540Z,5
2023-05-17T00:52:00.485Z,4
2023-05-17T00:53:07.619Z,5
2023-05-17T00:54:14.523Z,5
2023-05-17T00:55:21.589Z,5
2023-05-17T00:56:28.622Z,5
2023-05-17T00:57:36.230Z,6
2023-05-17T00:58:43.359Z,5
2023-05-17T00:59:50.441Z,5
2023-05-17T01:00:57.447Z,5
2023-05-17T01:02:04.422Z,5
2023-05-17T01:03:11.499Z,5
2023-05-17T01:04:18.729Z,6
2023-05-17T01:05:25.470Z,5
2023-05-17T01:06:33.884Z,5
2023-05-17T01:07:40.773Z,5
2023-05-17T01:08:48.084Z,6
2023-05-17T01:09:55.050Z,4
2023-05-17T01:11:01.937Z,4
2023-05-17T01:12:19.075Z,5
2023-05-17T01:13:36.112Z,4
2023-05-17T01:14:50.951Z,5
2023-05-17T01:16:00.586Z,4
2023-05-17T01:17:12.985Z,5
2023-05-17T01:18:19.936Z,5
2023-05-17T01:19:26.931Z,5
2023-05-17T01:20:38.922Z,5
2023-05-17T01:21:48.838Z,5
2023-05-17T01:23:00.829Z,5
2023-05-17T01:24:12.947Z,5
2023-05-17T01:25:23.185Z,5
2023-05-17T01:26:35.223Z,4
2023-05-17T01:27:43.143Z,4
2023-05-17T01:28:50.095Z,5
2023-05-17T01:29:57.076Z,5
2023-05-17T01:31:03.996Z,4
2023-05-17T01:32:10.953Z,5
2023-05-17T01:33:18.043Z,6
2023-05-17T01:34:24.965Z,5
2023-05-17T01:35:31.937Z,5
2023-05-17T01:36:38.876Z,6
2023-05-17T01:37:49.033Z,6
2023-05-17T01:38:56.060Z,5
2023-05-17T01:40:03.091Z,7
2023-05-17T01:41:11.678Z,5
2023-05-17T01:42:19.179Z,7
2023-05-17T01:43:26.076Z,7
2023-05-17T01:44:42.035Z,6
2023-05-17T01:45:56.486Z,6
2023-05-17T01:47:06.322Z,7
2023-05-17T01:48:18.494Z,7
2023-05-17T01:49:30.471Z,6
2023-05-17T01:50:39.975Z,6
2023-05-17T01:51:46.853Z,5
2023-05-17T01:52:56.664Z,4
2023-05-17T01:54:03.441Z,5
2023-05-17T01:55:10.454Z,5
2023-05-17T01:56:25.064Z,4
2023-05-17T01:57:32.029Z,5
2023-05-17T01:58:39.088Z,4
2023-05-17T01:59:48.715Z,4
2023-05-17T02:00:55.684Z,4
2023-05-17T02:02:02.662Z,5
2023-05-17T02:03:09.587Z,4
2023-05-17T02:04:16.552Z,4
2023-05-17T02:05:23.677Z,4
2023-05-17T02:06:30.587Z,5
2023-05-17T02:07:37.564Z,3
2023-05-17T02:08:44.565Z,4
2023-05-17T02:09:51.458Z,4
2023-05-17T02:10:58.482Z,3
2023-05-17T02:12:05.385Z,3
2023-05-17T02:13:12.295Z,4
2023-05-17T02:14:20.780Z,4
2023-05-17T02:15:28.068Z,3
2023-05-17T02:16:34.925Z,3
2023-05-17T02:17:42.282Z,3
2023-05-17T02:18:49.311Z,3
2023-05-17T02:19:56.156Z,3
2023-05-17T02:21:03.914Z,3
2023-05-17T02:22:10.834Z,3
2023-05-17T02:23:17.859Z,3
2023-05-17T02:24:24.980Z,4
2023-05-17T02:25:34.695Z,3
2023-05-17T02:26:41.730Z,3
2023-05-17T02:27:48.756Z,3
2023-05-17T02:28:58.045Z,3
2023-05-17T02:30:05.164Z,2
2023-05-17T02:31:12.312Z,3
2023-05-17T02:32:19.356Z,3
2023-05-17T02:33:26.451Z,3
2023-05-17T02:34:33.357Z,4
2023-05-17T02:35:43.341Z,3
2023-05-17T02:36:50.404Z,3
2023-05-17T02:37:57.847Z,3
2023-05-17T02:39:04.830Z,3
2023-05-17T02:40:11.914Z,4
2023-05-17T02:41:21.706Z,4
2023-05-17T02:42:28.732Z,3
2023-05-17T02:43:38.258Z,3
2023-05-17T02:44:45.272Z,3
2023-05-17T02:45:55.189Z,3
2023-05-17T02:47:02.288Z,4
2023-05-17T02:48:09.360Z,3
2023-05-17T02:49:16.278Z,3
2023-05-17T02:50:23.181Z,3
2023-05-17T02:51:30.245Z,4
2023-05-17T02:52:37.277Z,3
2023-05-17T02:53:44.255Z,4
2023-05-17T02:54:51.239Z,3
2023-05-17T02:55:58.301Z,4
2023-05-17T02:57:05.229Z,3
2023-05-17T02:58:12.327Z,4
2023-05-17T02:59:22.322Z,4
2023-05-17T03:00:29.227Z,5
2023-05-17T03:01:37.862Z,3
2023-05-17T03:02:45.124Z,4
2023-05-17T03:03:52.273Z,5
2023-05-17T03:04:59.971Z,4
2023-05-17T03:06:07.068Z,3
2023-05-17T03:07:14.107Z,4
2023-05-17T03:08:21.054Z,4
2023-05-17T03:09:28.080Z,4
2023-05-17T03:10:35.068Z,4
2023-05-17T03:11:42.150Z,4
2023-05-17T03:12:49.136Z,3
2023-05-17T03:13:56.135Z,4
2023-05-17T03:15:03.158Z,3
2023-05-17T03:16:13.074Z,3
2023-05-17T03:17:23.050Z,3
2023-05-17T03:18:30.148Z,3
2023-05-17T03:19:37.095Z,3
2023-05-17T03:20:44.034Z,4
2023-05-17T03:21:51.069Z,3
2023-05-17T03:22:58.647Z,3
2023-05-17T03:24:05.633Z,3
2023-05-17T03:25:12.690Z,3
2023-05-17T03:26:19.736Z,3
2023-05-17T03:27:26.751Z,3
2023-05-17T03:28:36.462Z,3
2023-05-17T03:29:43.401Z,3
2023-05-17T03:30:50.342Z,4
2023-05-17T03:31:57.357Z,4
2023-05-17T03:33:04.424Z,4
2023-05-17T03:34:11.308Z,4
2023-05-17T03:35:18.166Z,3
2023-05-17T03:36:25.958Z,3
2023-05-17T03:37:35.602Z,3
2023-05-17T03:38:42.641Z,3
2023-05-17T03:39:52.425Z,2
2023-05-17T03:40:59.317Z,3
2023-05-17T03:42:06.250Z,3
2023-05-17T03:43:13.330Z,6
2023-05-17T03:44:20.165Z,4
2023-05-17T03:45:27.238Z,3
2023-05-17T03:46:36.859Z,3
2023-05-17T03:47:43.943Z,3
2023-05-17T03:48:50.846Z,3
2023-05-17T03:49:57.815Z,4
2023-05-17T03:51:04.739Z,3
2023-05-17T03:52:11.683Z,5
2023-05-17T03:53:20.854Z,3
2023-05-17T03:54:25.850Z,5
2023-05-17T03:55:35.460Z,4
2023-05-17T03:56:42.440Z,4
2023-05-17T03:57:49.545Z,4
2023-05-17T03:58:56.630Z,4
2023-05-17T04:00:06.140Z,4
2023-05-17T04:01:13.801Z,4
2023-05-17T04:02:20.891Z,4
2023-05-17T04:03:27.904Z,4
2023-05-17T04:04:34.909Z,4
2023-05-17T04:05:42.034Z,4
2023-05-17T04:06:49.128Z,4
2023-05-17T04:07:56.130Z,4
2023-05-17T04:09:03.081Z,4
2023-05-17T04:10:10.132Z,4
2023-05-17T04:11:17.270Z,4
2023-05-17T04:12:24.230Z,6
2023-05-17T04:13:31.138Z,4
2023-05-17T04:14:38.291Z,4
2023-05-17T04:15:45.093Z,5
2023-05-17T04:16:52.051Z,4
2023-05-17T04:17:59.048Z,4
2023-05-17T04:19:05.943Z,5
2023-05-17T04:20:12.914Z,5
2023-05-17T04:21:19.889Z,4
2023-05-17T04:22:26.849Z,5
2023-05-17T04:23:33.750Z,5
2023-05-17T04:24:40.650Z,4
2023-05-17T04:25:47.493Z,5
2023-05-17T04:26:54.455Z,4
2023-05-17T04:28:01.361Z,4
2023-05-17T04:29:08.986Z,4
2023-05-17T04:30:15.962Z,5
2023-05-17T04:31:23.284Z,7
2023-05-17T04:32:30.288Z,4
2023-05-17T04:33:37.264Z,4
2023-05-17T04:34:47.443Z,5
2023-05-17T04:35:54.466Z,4
2023-05-17T04:37:01.556Z,5
2023-05-17T04:38:08.996Z,4
2023-05-17T04:39:15.972Z,4
2023-05-17T04:40:22.890Z,4
2023-05-17T04:41:29.829Z,5
2023-05-17T04:42:36.742Z,4
2023-05-17T04:43:44.225Z,4
2023-05-17T04:44:51.314Z,5
2023-05-17T04:45:58.578Z,3
2023-05-17T04:47:08.250Z,4
2023-05-17T04:48:18.016Z,5
2023-05-17T04:49:24.898Z,4
2023-05-17T04:50:32.601Z,3
2023-05-17T04:51:39.679Z,4
2023-05-17T04:52:46.842Z,4
2023-05-17T04:53:54.040Z,6
2023-05-17T04:55:01.486Z,4
2023-05-17T04:56:08.829Z,4
2023-05-17T04:57:15.753Z,5
2023-05-17T04:58:23.117Z,4
2023-05-17T04:59:30.109Z,4
2023-05-17T05:00:39.751Z,4
2023-05-17T05:01:46.930Z,4
2023-05-17T05:02:53.744Z,4
2023-05-17T05:04:01.484Z,5
2023-05-17T05:05:08.999Z,4
2023-05-17T05:06:16.058Z,4
2023-05-17T05:07:23.647Z,3
2023-05-17T05:08:31.472Z,4
2023-05-17T05:09:38.427Z,3
2023-05-17T05:10:45.599Z,4
2023-05-17T05:11:52.575Z,3
2023-05-17T05:12:59.523Z,4
2023-05-17T05:14:06.538Z,4
2023-05-17T05:15:13.419Z,3
2023-05-17T05:16:23.095Z,4
2023-05-17T05:17:30.289Z,4
2023-05-17T05:18:39.892Z,4
2023-05-17T05:19:46.760Z,4
2023-05-17T05:20:53.733Z,4
2023-05-17T05:22:00.762Z,4
2023-05-17T05:23:07.840Z,3
2023-05-17T05:24:14.926Z,4
2023-05-17T05:25:21.865Z,4
2023-05-17T05:26:29.033Z,4
2023-05-17T05:27:36.068Z,4
2023-05-17T05:28:43.266Z,5
2023-05-17T05:29:59.297Z,4
2023-05-17T05:31:06.450Z,4
2023-05-17T05:32:13.566Z,3
2023-05-17T05:33:20.733Z,4
2023-05-17T05:34:28.205Z,5
2023-05-17T05:35:35.165Z,3
2023-05-17T05:36:45.382Z,4
2023-05-17T05:37:49.530Z,4
2023-05-17T05:38:56.576Z,5
2023-05-17T05:40:03.660Z,4
2023-05-17T05:41:11.051Z,4
2023-05-17T05:42:18.114Z,3
2023-05-17T05:43:25.098Z,5
2023-05-17T05:44:32.031Z,4
2023-05-17T05:45:39.102Z,4
2023-05-17T05:46:49.124Z,4
2023-05-17T05:47:56.202Z,6
2023-05-17T05:49:03.624Z,7
2023-05-17T05:50:10.509Z,6
2023-05-17T05:51:26.986Z,4
2023-05-17T05:52:34.004Z,5
2023-05-17T05:53:41.071Z,5
2023-05-17T05:54:49.623Z,5
2023-05-17T05:55:56.600Z,7
2023-05-17T05:57:03.586Z,7
2023-05-17T05:58:10.556Z,7
2023-05-17T05:59:17.865Z,5
2023-05-17T06:00:24.764Z,6
2023-05-17T06:01:31.733Z,6
2023-05-17T06:02:38.635Z,5
2023-05-17T06:03:45.610Z,5
2023-05-17T06:04:52.759Z,5
2023-05-17T06:06:02.907Z,6
2023-05-17T06:07:10.104Z,7
2023-05-17T06:08:17.883Z,6
2023-05-17T06:09:24.829Z,6
2023-05-17T06:10:32.082Z,6
2023-05-17T06:11:39.427Z,6
2023-05-17T06:12:46.446Z,6
2023-05-17T06:13:53.449Z,6
2023-05-17T06:15:00.604Z,7
2023-05-17T06:16:07.874Z,6
2023-05-17T06:17:15.209Z,6
2023-05-17T06:18:22.305Z,6
2023-05-17T06:20:01.247Z,6
2023-05-17T06:21:08.446Z,6
2023-05-17T06:22:18.335Z,8
2023-05-17T06:23:28.585Z,6
2023-05-17T06:24:42.106Z,7
2023-05-17T06:25:49.477Z,5
2023-05-17T06:27:00.171Z,6
2023-05-17T06:28:08.083Z,6
2023-05-17T06:29:14.982Z,6
2023-05-17T06:30:21.957Z,5
2023-05-17T06:31:31.561Z,6
2023-05-17T06:32:42.229Z,5
2023-05-17T06:33:49.924Z,6
2023-05-17T06:34:59.845Z,5
2023-05-17T06:36:08.415Z,6
2023-05-17T06:37:28.203Z,8
2023-05-17T06:38:35.861Z,9
2023-05-17T06:39:45.471Z,7
2023-05-17T06:40:50.045Z,5
2023-05-17T06:41:56.988Z,5
2023-05-17T06:43:04.143Z,5
2023-05-17T06:44:11.097Z,6
2023-05-17T06:45:17.314Z,6
2023-05-17T06:46:22.410Z,6
2023-05-17T06:47:27.482Z,6
2023-05-17T06:48:32.717Z,6
2023-05-17T06:49:38.194Z,6
2023-05-17T06:50:45.377Z,6
2023-05-17T06:51:53.913Z,6
2023-05-17T06:52:58.823Z,6
2023-05-17T06:54:04.215Z,6
2023-05-17T06:55:09.375Z,6
2023-05-17T06:56:15.161Z,6
2023-05-17T06:57:23.018Z,6
2023-05-17T06:58:28.167Z,6
2023-05-17T06:59:34.525Z,6
2023-05-17T07:00:39.569Z,6
2023-05-17T07:01:45.528Z,6
2023-05-17T07:02:50.961Z,6
2023-05-17T07:03:58.909Z,6
2023-05-17T07:05:02.094Z,6
2023-05-17T07:06:07.292Z,6
2023-05-17T07:07:15.419Z,6
2023-05-17T07:08:20.744Z,6
2023-05-17T07:09:25.848Z,6
2023-05-17T07:10:33.508Z,6
2023-05-17T07:11:41.667Z,6
2023-05-17T07:12:49.892Z,6
2023-05-17T07:13:55.533Z,6
2023-05-17T07:15:00.730Z,6
2023-05-17T07:16:11.835Z,6
2023-05-17T07:17:20.855Z,6
2023-05-17T07:18:27.672Z,6
2023-05-17T07:19:33.888Z,6
2023-05-17T07:20:42.360Z,6
2023-05-17T07:21:48.762Z,6
2023-05-17T07:22:54.449Z,6
2023-05-17T07:24:01.514Z,6
2023-05-17T07:25:09.554Z,6
2023-05-17T07:26:17.843Z,6
2023-05-17T07:27:29.292Z,6
2023-05-17T07:28:40.047Z,6
2023-05-17T07:29:47.676Z,6
2023-05-17T07:30:57.557Z,6
2023-05-17T07:32:03.727Z,6
2023-05-17T07:33:13.621Z,6
2023-05-17T07:34:20.198Z,6
2023-05-17T07:35:27.258Z,6
2023-05-17T07:36:33.338Z,6
2023-05-17T07:37:39.037Z,6
2023-05-17T07:38:48.572Z,6
2023-05-17T07:40:19.677Z,6
2023-05-17T07:41:25.159Z,6
2023-05-17T07:42:30.174Z,6
2023-05-17T07:43:35.459Z,6
2023-05-17T07:44:43.771Z,6
2023-05-17T07:46:01.549Z,6
2023-05-17T07:47:06.900Z,6
2023-05-17T07:48:14.051Z,6
2023-05-17T07:49:19.936Z,6
2023-05-17T07:50:27.583Z,6
2023-05-17T07:51:36.304Z,5
2023-05-17T07:52:47.044Z,5
2023-05-17T07:53:55.203Z,5
2023-05-17T07:55:05.817Z,6
2023-05-17T07:56:13.829Z,5
2023-05-17T07:57:25.647Z,4
2023-05-17T07:58:34.073Z,6
2023-05-17T07:59:42.392Z,5
2023-05-17T08:00:50.582Z,5
2023-05-17T08:02:00.708Z,5
2023-05-17T08:03:09.044Z,5
2023-05-17T08:04:16.688Z,5
2023-05-17T08:05:24.593Z,5
2023-05-17T08:06:32.216Z,4
2023-05-17T08:07:39.459Z,5
2023-05-17T08:08:50.916Z,4
2023-05-17T08:09:59.235Z,6
2023-05-17T08:11:16.172Z,8
2023-05-17T08:12:27.774Z,5
2023-05-17T08:13:35.382Z,6
2023-05-17T08:15:11.195Z,6
2023-05-17T08:16:18.682Z,7
2023-05-17T08:17:25.875Z,8
2023-05-17T08:18:34.225Z,7
2023-05-17T08:19:41.633Z,5
2023-05-17T08:20:49.068Z,6
2023-05-17T08:22:08.768Z,6
2023-05-17T08:23:18.273Z,7
2023-05-17T08:24:27.629Z,6
2023-05-17T08:25:34.985Z,5
2023-05-17T08:26:42.095Z,5
2023-05-17T08:27:49.292Z,6
2023-05-17T08:28:57.223Z,7
2023-05-17T08:30:11.546Z,6
2023-05-17T08:31:17.672Z,5
2023-05-17T08:32:25.725Z,6
2023-05-17T08:33:33.955Z,8
2023-05-17T08:34:42.651Z,6
2023-05-17T08:35:49.839Z,6
2023-05-17T08:36:57.288Z,6
2023-05-17T08:38:09.145Z,6
2023-05-17T08:39:27.969Z,5
2023-05-17T08:40:35.075Z,6
2023-05-17T08:41:42.353Z,7
2023-05-17T08:42:52.685Z,6
2023-05-17T08:44:00.704Z,5
2023-05-17T08:45:07.997Z,7
2023-05-17T08:46:15.259Z,7
2023-05-17T08:47:22.352Z,6
2023-05-17T08:48:30.701Z,6
2023-05-17T08:49:38.236Z,7
2023-05-17T08:50:45.524Z,5
2023-05-17T08:55:47.117Z,5
2023-05-17T08:56:54.412Z,5
2023-05-17T08:58:01.680Z,4
2023-05-17T08:59:08.770Z,5
2023-05-17T09:00:15.815Z,4
2023-05-17T09:01:25.087Z,4
2023-05-17T09:02:30.617Z,4
2023-05-17T09:03:37.843Z,6
2023-05-17T09:04:45.913Z,5
2023-05-17T09:05:52.921Z,5
2023-05-17T09:06:59.876Z,6
2023-05-17T09:08:07.078Z,6
2023-05-17T09:09:15.388Z,5
2023-05-17T09:10:23.621Z,4
2023-05-17T09:11:35.821Z,4
2023-05-17T09:12:42.794Z,15
2023-05-17T09:14:01.715Z,7
2023-05-17T09:15:08.537Z,4
2023-05-17T09:16:15.369Z,21
2023-05-17T09:17:23.300Z,15
2023-05-17T09:18:33.287Z,5
2023-05-17T09:19:40.242Z,24
2023-05-17T09:20:46.949Z,19
2023-05-17T09:21:57.554Z,6
2023-05-17T09:23:04.350Z,5
2023-05-17T09:24:11.822Z,6
2023-05-17T09:25:18.787Z,7
2023-05-17T09:26:25.668Z,5
2023-05-17T09:27:44.083Z,6
2023-05-17T09:28:56.329Z,8
2023-05-17T09:30:12.382Z,7
2023-05-17T09:31:25.668Z,9
2023-05-17T09:32:36.291Z,17
2023-05-17T09:33:46.169Z,8
2023-05-17T09:34:53.450Z,6
2023-05-17T09:36:00.796Z,5
2023-05-17T09:37:11.224Z,6
2023-05-17T09:38:19.888Z,6
2023-05-17T09:39:26.727Z,5
2023-05-17T09:40:33.474Z,6
2023-05-17T09:41:44.256Z,10
2023-05-17T09:42:51.062Z,7
2023-05-17T09:43:57.965Z,5
2023-05-17T09:45:04.946Z,7
2023-05-17T09:46:11.776Z,9
2023-05-17T09:47:19.032Z,6
2023-05-17T09:49:04.299Z,6
2023-05-17T09:50:11.566Z,12
2023-05-17T09:51:18.851Z,9
2023-05-17T09:52:36.106Z,7
2023-05-17T09:53:43.971Z,8
2023-05-17T09:54:50.785Z,10
2023-05-17T09:55:57.736Z,6
2023-05-17T09:57:04.644Z,8
2023-05-17T09:58:11.740Z,6
2023-05-17T09:59:18.908Z,7
2023-05-17T10:00:26.972Z,8
2023-05-17T10:01:33.997Z,8
2023-05-17T10:02:41.307Z,9
2023-05-17T10:03:48.315Z,10
2023-05-17T10:04:55.320Z,8
2023-05-17T10:06:02.140Z,5
2023-05-17T10:07:09.195Z,7
2023-05-17T10:08:16.374Z,7
2023-05-17T10:09:23.558Z,5
2023-05-17T10:10:30.697Z,8
2023-05-17T10:11:37.696Z,7
2023-05-17T10:12:44.973Z,8
2023-05-17T10:13:52.154Z,8
2023-05-17T10:15:05.239Z,10
2023-05-17T10:16:12.604Z,8
2023-05-17T10:17:19.636Z,8
2023-05-17T10:18:27.045Z,7
2023-05-17T10:19:34.726Z,6
2023-05-17T10:20:42.107Z,8
2023-05-17T10:21:49.214Z,6
2023-05-17T10:22:57.975Z,6
2023-05-17T10:24:03.578Z,9
2023-05-17T10:25:10.783Z,8
2023-05-17T10:26:17.930Z,9
2023-05-17T10:27:27.658Z,6
2023-05-17T10:28:34.773Z,8
2023-05-17T10:29:41.883Z,8
2023-05-17T10:30:49.016Z,8
2023-05-17T10:31:56.389Z,8
2023-05-17T10:33:03.613Z,9
2023-05-17T10:34:10.741Z,6
2023-05-17T10:35:17.867Z,5
2023-05-17T10:36:25.145Z,8
2023-05-17T10:37:32.270Z,8
2023-05-17T10:38:42.734Z,7
2023-05-17T10:39:46.410Z,8
2023-05-17T10:40:53.544Z,8
2023-05-17T10:42:13.262Z,8
2023-05-17T10:43:07.784Z,9
2023-05-17T10:44:14.924Z,9
2023-05-17T10:45:21.927Z,9
2023-05-17T10:46:28.933Z,7
2023-05-17T10:47:35.977Z,6
2023-05-17T10:48:42.912Z,6
2023-05-17T10:49:55.130Z,8
2023-05-17T10:51:02.236Z,10
2023-05-17T10:52:12.246Z,8
2023-05-17T10:53:19.431Z,6
2023-05-17T10:54:26.595Z,9
2023-05-17T10:55:38.854Z,9
2023-05-17T10:56:45.922Z,9
2023-05-17T10:57:56.123Z,7
2023-05-17T10:59:13.049Z,8
2023-05-17T11:00:25.191Z,8
2023-05-17T11:01:36.333Z,10
2023-05-17T11:02:54.280Z,8
2023-05-17T11:04:11.652Z,8
2023-05-17T11:05:24.835Z,8
2023-05-17T11:06:32.321Z,7
2023-05-17T11:07:39.659Z,8
2023-05-17T11:08:46.861Z,8
2023-05-17T11:10:04.561Z,10
2023-05-17T11:11:14.466Z,7
2023-05-17T11:12:21.923Z,7
2023-05-17T11:13:32.163Z,8
2023-05-17T11:14:44.717Z,9
2023-05-17T11:15:52.319Z,8
2023-05-17T11:17:07.269Z,7
2023-05-17T11:18:29.394Z,7
2023-05-17T11:19:24.767Z,7
2023-05-17T11:20:32.458Z,8
2023-05-17T11:21:39.257Z,7
2023-05-17T11:22:49.091Z,8
2023-05-17T11:24:04.600Z,8
2023-05-17T11:25:13.640Z,8
2023-05-17T11:26:22.339Z,9
2023-05-17T11:27:32.084Z,8
2023-05-17T11:28:39.179Z,13
2023-05-17T11:29:46.271Z,10
2023-05-17T11:30:53.438Z,6
2023-05-17T11:32:00.603Z,15
2023-05-17T11:33:20.896Z,9
2023-05-17T11:34:17.832Z,8
2023-05-17T11:35:24.631Z,6
2023-05-17T11:36:36.875Z,8
2023-05-17T11:37:51.850Z,8
2023-05-17T11:39:07.718Z,12
2023-05-17T11:40:13.868Z,42
2023-05-17T11:42:27.744Z,90
2023-05-17T11:43:34.740Z,134
2023-05-17T11:44:41.669Z,115
2023-05-17T11:45:50.697Z,57
2023-05-17T11:46:55.636Z,36
2023-05-17T11:48:05.488Z,24
2023-05-17T11:49:17.803Z,19
2023-05-17T11:50:19.902Z,9
2023-05-17T11:51:26.901Z,8
2023-05-17T11:52:34.091Z,9
2023-05-17T11:53:41.139Z,11
2023-05-17T11:54:48.363Z,11
2023-05-17T11:55:55.650Z,12
2023-05-17T11:57:02.874Z,9
2023-05-17T11:58:10.501Z,7
2023-05-17T11:59:17.592Z,7
2023-05-17T12:00:27.595Z,7
2023-05-17T12:01:37.468Z,9
2023-05-17T12:02:50.293Z,9
2023-05-17T12:03:57.131Z,10
2023-05-17T12:05:04.054Z,9
2023-05-17T12:06:11.270Z,7
2023-05-17T12:07:18.614Z,8
2023-05-17T12:08:25.793Z,7
2023-05-17T12:09:33.413Z,6
2023-05-17T12:10:41.031Z,6
2023-05-17T12:11:53.806Z,6
2023-05-17T12:13:01.489Z,8
2023-05-17T12:14:09.645Z,10
2023-05-17T12:15:20.752Z,7
2023-05-17T12:16:28.728Z,8
2023-05-17T12:17:36.636Z,8
2023-05-17T12:18:45.521Z,9
2023-05-17T12:19:53.274Z,8
2023-05-17T12:21:02.348Z,9
2023-05-17T12:22:10.706Z,8
2023-05-17T12:23:18.740Z,9
2023-05-17T12:24:29.577Z,28
2023-05-17T12:25:42.563Z,13
2023-05-17T12:26:50.379Z,7
2023-05-17T12:27:58.367Z,7
2023-05-17T12:29:17.197Z,10
2023-05-17T12:30:25.445Z,10
2023-05-17T12:31:33.864Z,10
2023-05-17T12:32:41.963Z,8
2023-05-17T12:33:50.087Z,11
2023-05-17T12:34:58.174Z,11
2023-05-17T12:36:06.248Z,14
2023-05-17T12:37:14.363Z,17
2023-05-17T12:38:22.132Z,19
2023-05-17T12:39:30.401Z,15
2023-05-17T12:40:38.608Z,10
2023-05-17T12:41:46.749Z,10
2023-05-17T12:42:57.375Z,7
2023-05-17T12:44:14.370Z,7
2023-05-17T12:45:14.314Z,8
2023-05-17T12:46:22.968Z,7
2023-05-17T12:47:30.889Z,12
2023-05-17T12:48:42.653Z,10
2023-05-17T12:49:47.999Z,10
2023-05-17T12:50:59.387Z,12
2023-05-17T12:52:13.304Z,7
2023-05-17T12:53:24.406Z,8
2023-05-17T12:54:32.786Z,7
2023-05-17T12:55:56.799Z,8
2023-05-17T12:57:04.570Z,7
2023-05-17T12:58:15.243Z,7
2023-05-17T12:59:23.097Z,8
2023-05-17T13:00:31.136Z,10
2023-05-17T13:01:38.925Z,8
2023-05-17T13:02:49.958Z,9
2023-05-17T13:03:58.307Z,7
2023-05-17T13:05:06.316Z,8
2023-05-17T13:06:19.512Z,11
2023-05-17T13:07:27.059Z,9
2023-05-17T13:08:34.912Z,8
2023-05-17T13:09:42.928Z,7
2023-05-17T13:10:51.139Z,9
2023-05-17T13:11:59.048Z,8
2023-05-17T13:13:09.587Z,9
2023-05-17T13:14:22.982Z,9
2023-05-17T13:15:41.071Z,8
2023-05-17T13:16:48.952Z,9
2023-05-17T13:17:56.817Z,9
2023-05-17T13:19:04.743Z,9
2023-05-17T13:20:15.166Z,10
2023-05-17T13:21:23.132Z,10
2023-05-17T13:22:30.873Z,9
2023-05-17T13:23:38.744Z,10
2023-05-17T13:24:49.650Z,10
2023-05-17T13:25:57.409Z,9
2023-05-17T13:27:04.991Z,13
2023-05-17T13:28:13.920Z,13
2023-05-17T13:29:28.571Z,11
2023-05-17T13:30:28.743Z,10
2023-05-17T13:31:35.477Z,9
2023-05-17T13:32:43.122Z,8
2023-05-17T13:33:50.433Z,8
2023-05-17T13:34:57.866Z,11
2023-05-17T13:36:05.156Z,14
2023-05-17T13:37:12.846Z,13
2023-05-17T13:38:18.924Z,10
2023-05-17T13:39:25.843Z,10
2023-05-17T13:40:32.591Z,10
2023-05-17T13:41:40.086Z,13
2023-05-17T13:42:48.861Z,11
2023-05-17T13:43:56.457Z,9
2023-05-17T13:45:04.580Z,9
2023-05-17T13:46:13.141Z,10
2023-05-17T13:47:21.027Z,14
2023-05-17T13:48:28.890Z,11
2023-05-17T13:49:36.581Z,11
2023-05-17T13:50:43.420Z,11
2023-05-17T13:51:50.339Z,11
2023-05-17T13:52:57.292Z,8
2023-05-17T13:54:05.282Z,8
2023-05-17T13:55:12.507Z,7
2023-05-17T13:56:20.188Z,9
2023-05-17T13:57:27.733Z,10
2023-05-17T13:58:34.749Z,8
2023-05-17T13:59:43.067Z,7
2023-05-17T14:00:49.355Z,9
2023-05-17T14:01:57.018Z,11
2023-05-17T14:03:04.795Z,11
2023-05-17T14:04:12.863Z,10
2023-05-17T14:05:21.035Z,9
2023-05-17T14:06:29.115Z,10
2023-05-17T14:07:37.028Z,10
2023-05-17T14:08:47.649Z,8
2023-05-17T14:09:55.427Z,9
2023-05-17T14:11:03.368Z,11
2023-05-17T14:12:11.412Z,14
2023-05-17T14:13:19.195Z,15
2023-05-17T14:14:27.284Z,17
2023-05-17T14:15:35.201Z,14
2023-05-17T14:16:43.126Z,21
2023-05-17T14:17:51.393Z,17
2023-05-17T14:19:00.400Z,16
2023-05-17T14:20:07.776Z,17
2023-05-17T14:21:16.008Z,13
2023-05-17T14:22:24.380Z,11
2023-05-17T14:23:33.072Z,12
2023-05-17T14:24:40.867Z,13
2023-05-17T14:25:49.084Z,15
2023-05-17T14:26:57.148Z,16
2023-05-17T14:28:05.092Z,14
2023-05-17T14:29:13.263Z,10
2023-05-17T14:30:21.537Z,10
2023-05-17T14:31:29.782Z,12
2023-05-17T14:32:37.861Z,13
2023-05-17T14:33:46.526Z,10
2023-05-17T14:34:54.412Z,12
2023-05-17T14:36:02.169Z,13
2023-05-17T14:37:09.991Z,10
2023-05-17T14:38:17.928Z,12
2023-05-17T14:39:26.204Z,12
2023-05-17T14:40:34.341Z,17
2023-05-17T14:41:44.846Z,12
2023-05-17T14:42:50.432Z,13
2023-05-17T14:43:58.317Z,11
2023-05-17T14:45:06.064Z,11
2023-05-17T14:46:13.878Z,11
2023-05-17T14:47:21.768Z,12
2023-05-17T14:48:29.842Z,10
2023-05-17T14:49:37.844Z,10
2023-05-17T14:50:45.928Z,13
2023-05-17T14:51:53.738Z,14
2023-05-17T14:53:01.636Z,14
2023-05-17T14:54:10.273Z,11
2023-05-17T14:55:17.418Z,14
2023-05-17T14:56:25.340Z,13
2023-05-17T14:57:33.434Z,14
2023-05-17T14:58:42.051Z,13
2023-05-17T14:59:49.860Z,14
2023-05-17T15:01:05.828Z,14
2023-05-17T15:02:05.571Z,15
2023-05-17T15:03:34.525Z,15
2023-05-17T15:04:42.301Z,15
2023-05-17T15:05:50.199Z,13
2023-05-17T15:06:58.163Z,13
2023-05-17T15:08:05.900Z,17
2023-05-17T15:09:13.707Z,14
2023-05-17T15:10:21.592Z,17
2023-05-17T15:11:30.667Z,16
2023-05-17T15:12:39.774Z,16
2023-05-17T15:13:47.526Z,13
2023-05-17T15:14:55.351Z,14
2023-05-17T15:16:03.310Z,16
2023-05-17T15:17:26.673Z,12
2023-05-17T15:18:34.656Z,11
2023-05-17T15:19:43.212Z,11
2023-05-17T15:20:50.964Z,13
2023-05-17T15:21:58.929Z,12
2023-05-17T15:23:06.733Z,13
2023-05-17T15:24:16.013Z,12
2023-05-17T15:25:22.718Z,12
2023-05-17T15:26:30.514Z,12
2023-05-17T15:27:38.535Z,11
2023-05-17T15:28:46.613Z,12
2023-05-17T15:29:54.472Z,15
2023-05-17T15:31:01.905Z,13
2023-05-17T15:32:14.899Z,14
2023-05-17T15:33:22.739Z,13
2023-05-17T15:34:30.101Z,14
2023-05-17T15:35:37.692Z,11
2023-05-17T15:36:45.637Z,13
2023-05-17T15:37:56.014Z,11
2023-05-17T15:39:04.944Z,12
2023-05-17T15:40:12.825Z,16
2023-05-17T15:41:20.795Z,14
2023-05-17T15:42:28.688Z,16
2023-05-17T15:43:36.549Z,14
2023-05-17T15:44:44.406Z,16
2023-05-17T15:45:52.418Z,14
2023-05-17T15:47:02.379Z,16
2023-05-17T15:48:08.563Z,17
2023-05-17T15:49:16.373Z,14
2023-05-17T15:50:24.326Z,14
2023-05-17T15:51:32.367Z,14
2023-05-17T15:52:40.068Z,14
2023-05-17T15:53:48.096Z,13
2023-05-17T15:54:55.895Z,16
2023-05-17T15:56:04.054Z,15
2023-05-17T15:57:12.162Z,17
2023-05-17T15:58:19.970Z,17
2023-05-17T15:59:28.099Z,16
2023-05-17T16:00:36.193Z,17
2023-05-17T16:01:44.154Z,18
2023-05-17T16:02:52.214Z,15
2023-05-17T16:04:00.467Z,18
2023-05-17T16:05:08.563Z,23
2023-05-17T16:06:16.991Z,23
2023-05-17T16:07:25.979Z,20
2023-05-17T16:08:34.323Z,20
2023-05-17T16:09:42.177Z,19
2023-05-17T16:10:50.052Z,19
2023-05-17T16:11:57.970Z,20
2023-05-17T16:13:06.005Z,18
2023-05-17T16:14:14.032Z,17
2023-05-17T16:15:21.989Z,19
2023-05-17T16:16:29.775Z,17
2023-05-17T16:17:37.932Z,19
2023-05-17T16:18:45.889Z,19
2023-05-17T16:19:53.719Z,19
2023-05-17T16:21:01.558Z,17
2023-05-17T16:22:09.616Z,18
2023-05-17T16:23:17.509Z,19
2023-05-17T16:24:25.451Z,19
2023-05-17T16:25:33.328Z,20
2023-05-17T16:26:41.259Z,21
2023-05-17T16:27:49.086Z,20
2023-05-17T16:28:57.336Z,19
2023-05-17T16:30:05.322Z,17
2023-05-17T16:31:13.385Z,15
2023-05-17T16:32:21.173Z,14
2023-05-17T16:33:30.641Z,14
2023-05-17T16:34:38.464Z,18
2023-05-17T16:35:46.615Z,15
2023-05-17T16:36:54.352Z,16
2023-05-17T16:38:02.476Z,14
2023-05-17T16:39:10.224Z,14
2023-05-17T16:40:18.338Z,14
2023-05-17T16:41:26.647Z,14
2023-05-17T16:42:34.499Z,15
2023-05-17T16:43:42.510Z,16
2023-05-17T16:44:51.858Z,15
2023-05-17T16:45:59.217Z,13